sensor_id;sensor_type;location;lat;lon;timestamp;temperature;humidity
50758;DHT22;36732;47.980;11.652;2022-08-19T00:01:51;24.00;59.20
50758;DHT22;36732;47.980;11.652;2022-08-19T00:04:20;24.00;59.30
50758;DHT22;36732;47.980;11.652;2022-08-19T00:06:49;24.00;59.30
50758;DHT22;36732;47.980;11.652;2022-08-19T00:09:17;24.00;59.20
50758;DHT22;36732;47.980;11.652;2022-08-19T00:11:45;24.00;59.30
50758;DHT22;36732;47.980;11.652;2022-08-19T00:14:13;24.00;59.20
50758;DHT22;36732;47.980;11.652;2022-08-19T00:16:42;23.90;59.80
50758;DHT22;36732;47.980;11.652;2022-08-19T00:19:09;23.90;59.20
50758;DHT22;36732;47.980;11.652;2022-08-19T00:21:36;23.90;59.80
50758;DHT22;36732;47.980;11.652;2022-08-19T00:24:08;23.90;59.80
50758;DHT22;36732;47.980;11.652;2022-08-19T00:26:35;23.90;59.20
50758;DHT22;36732;47.980;11.652;2022-08-19T00:29:04;24.00;59.30
50758;DHT22;36732;47.980;11.652;2022-08-19T00:31:30;23.90;59.30
50758;DHT22;36732;47.980;11.652;2022-08-19T00:33:56;23.90;59.20
50758;DHT22;36732;47.980;11.652;2022-08-19T00:36:22;23.90;59.30
50758;DHT22;36732;47.980;11.652;2022-08-19T00:38:48;23.90;59.20
50758;DHT22;36732;47.980;11.652;2022-08-19T00:41:18;23.90;59.20
50758;DHT22;36732;47.980;11.652;2022-08-19T00:46:33;23.90;59.30
50758;DHT22;36732;47.980;11.652;2022-08-19T00:49:19;23.90;59.00
50758;DHT22;36732;47.980;11.652;2022-08-19T00:51:51;23.90;59.10
50758;DHT22;36732;47.980;11.652;2022-08-19T00:54:20;23.90;59.00
50758;DHT22;36732;47.980;11.652;2022-08-19T00:56:46;23.90;58.90
50758;DHT22;36732;47.980;11.652;2022-08-19T00:59:14;23.80;58.80
50758;DHT22;36732;47.980;11.652;2022-08-19T01:01:42;23.90;58.90
50758;DHT22;36732;47.980;11.652;2022-08-19T01:04:09;23.90;58.90
50758;DHT22;36732;47.980;11.652;2022-08-19T01:06:39;23.80;58.80
50758;DHT22;36732;47.980;11.652;2022-08-19T01:09:06;23.80;59.50
50758;DHT22;36732;47.980;11.652;2022-08-19T01:11:36;23.80;59.30
50758;DHT22;36732;47.980;11.652;2022-08-19T01:14:07;23.80;58.80
50758;DHT22;36732;47.980;11.652;2022-08-19T01:16:34;23.80;58.70
50758;DHT22;36732;47.980;11.652;2022-08-19T01:19:01;23.80;58.70
50758;DHT22;36732;47.980;11.652;2022-08-19T01:21:31;23.80;58.70
50758;DHT22;36732;47.980;11.652;2022-08-19T01:24:00;23.80;58.80
50758;DHT22;36732;47.980;11.652;2022-08-19T01:26:26;23.80;58.90
50758;DHT22;36732;47.980;11.652;2022-08-19T01:28:55;23.70;58.90
50758;DHT22;36732;47.980;11.652;2022-08-19T01:31:26;23.70;59.00
50758;DHT22;36732;47.980;11.652;2022-08-19T01:33:57;23.70;59.00
50758;DHT22;36732;47.980;11.652;2022-08-19T01:36:43;23.70;59.00
50758;DHT22;36732;47.980;11.652;2022-08-19T01:39:18;23.70;59.20
50758;DHT22;36732;47.980;11.652;2022-08-19T01:41:46;23.70;59.20
50758;DHT22;36732;47.980;11.652;2022-08-19T01:44:13;23.70;59.10
50758;DHT22;36732;47.980;11.652;2022-08-19T01:46:39;23.70;59.10
50758;DHT22;36732;47.980;11.652;2022-08-19T01:49:06;23.70;59.10
50758;DHT22;36732;47.980;11.652;2022-08-19T01:51:33;23.70;59.20
50758;DHT22;36732;47.980;11.652;2022-08-19T01:53:59;23.70;59.20
50758;DHT22;36732;47.980;11.652;2022-08-19T01:56:25;23.70;59.20
50758;DHT22;36732;47.980;11.652;2022-08-19T01:59:02;23.70;59.20
50758;DHT22;36732;47.980;11.652;2022-08-19T02:01:30;23.70;59.30
50758;DHT22;36732;47.980;11.652;2022-08-19T02:03:59;23.70;59.20
50758;DHT22;36732;47.980;11.652;2022-08-19T02:06:28;23.70;59.20
50758;DHT22;36732;47.980;11.652;2022-08-19T02:08:55;23.70;59.10
50758;DHT22;36732;47.980;11.652;2022-08-19T02:11:23;23.70;59.10
50758;DHT22;36732;47.980;11.652;2022-08-19T02:13:53;23.60;59.10
50758;DHT22;36732;47.980;11.652;2022-08-19T02:16:20;23.70;59.00
50758;DHT22;36732;47.980;11.652;2022-08-19T02:18:46;23.70;59.00
50758;DHT22;36732;47.980;11.652;2022-08-19T02:21:15;23.70;59.00
50758;DHT22;36732;47.980;11.652;2022-08-19T02:23:42;23.60;58.90
50758;DHT22;36732;47.980;11.652;2022-08-19T02:26:09;23.70;58.90
50758;DHT22;36732;47.980;11.652;2022-08-19T02:28:38;23.60;58.90
50758;DHT22;36732;47.980;11.652;2022-08-19T02:31:13;23.60;58.80
50758;DHT22;36732;47.980;11.652;2022-08-19T02:33:44;23.60;58.90
50758;DHT22;36732;47.980;11.652;2022-08-19T02:36:12;23.60;58.70
50758;DHT22;36732;47.980;11.652;2022-08-19T02:38:39;23.60;58.70
50758;DHT22;36732;47.980;11.652;2022-08-19T02:41:08;23.60;58.70
50758;DHT22;36732;47.980;11.652;2022-08-19T02:43:38;23.60;58.70
50758;DHT22;36732;47.980;11.652;2022-08-19T02:46:19;23.60;58.70
50758;DHT22;36732;47.980;11.652;2022-08-19T02:48:53;23.60;58.70
50758;DHT22;36732;47.980;11.652;2022-08-19T02:51:26;23.60;58.70
50758;DHT22;36732;47.980;11.652;2022-08-19T02:53:53;23.60;58.70
50758;DHT22;36732;47.980;11.652;2022-08-19T02:56:20;23.50;58.50
50758;DHT22;36732;47.980;11.652;2022-08-19T02:58:46;23.60;58.60
50758;DHT22;36732;47.980;11.652;2022-08-19T03:01:31;23.50;58.50
50758;DHT22;36732;47.980;11.652;2022-08-19T03:04:00;23.50;58.60
50758;DHT22;36732;47.980;11.652;2022-08-19T03:06:27;23.50;58.50
50758;DHT22;36732;47.980;11.652;2022-08-19T03:08:53;23.50;58.60
50758;DHT22;36732;47.980;11.652;2022-08-19T03:11:29;23.50;58.60
50758;DHT22;36732;47.980;11.652;2022-08-19T03:13:57;23.40;58.60
50758;DHT22;36732;47.980;11.652;2022-08-19T03:16:26;23.40;58.50
50758;DHT22;36732;47.980;11.652;2022-08-19T03:18:56;23.50;58.60
50758;DHT22;36732;47.980;11.652;2022-08-19T03:21:26;23.40;58.50
50758;DHT22;36732;47.980;11.652;2022-08-19T03:24:02;23.40;58.50
50758;DHT22;36732;47.980;11.652;2022-08-19T03:26:30;23.40;58.70
50758;DHT22;36732;47.980;11.652;2022-08-19T03:28:56;23.40;58.50
50758;DHT22;36732;47.980;11.652;2022-08-19T03:31:26;23.40;58.60
50758;DHT22;36732;47.980;11.652;2022-08-19T03:33:52;23.30;58.50
50758;DHT22;36732;47.980;11.652;2022-08-19T03:36:24;23.30;58.50
50758;DHT22;36732;47.980;11.652;2022-08-19T03:38:54;23.30;58.60
50758;DHT22;36732;47.980;11.652;2022-08-19T03:41:27;23.30;58.60
50758;DHT22;36732;47.980;11.652;2022-08-19T03:43:54;23.30;58.70
50758;DHT22;36732;47.980;11.652;2022-08-19T03:46:26;23.30;59.30
50758;DHT22;36732;47.980;11.652;2022-08-19T03:48:57;23.30;58.90
50758;DHT22;36732;47.980;11.652;2022-08-19T03:51:34;23.20;58.80
50758;DHT22;36732;47.980;11.652;2022-08-19T03:54:06;23.20;58.90
50758;DHT22;36732;47.980;11.652;2022-08-19T03:56:37;23.20;58.80
50758;DHT22;36732;47.980;11.652;2022-08-19T03:59:05;23.20;58.90
50758;DHT22;36732;47.980;11.652;2022-08-19T04:01:32;23.20;58.90
50758;DHT22;36732;47.980;11.652;2022-08-19T04:03:59;23.20;58.80
50758;DHT22;36732;47.980;11.652;2022-08-19T04:06:30;23.20;58.90
50758;DHT22;36732;47.980;11.652;2022-08-19T04:08:58;23.20;59.00
50758;DHT22;36732;47.980;11.652;2022-08-19T04:11:30;23.20;58.90
50758;DHT22;36732;47.980;11.652;2022-08-19T04:13:59;23.20;59.70
50758;DHT22;36732;47.980;11.652;2022-08-19T04:16:26;23.10;58.90
50758;DHT22;36732;47.980;11.652;2022-08-19T04:18:59;23.10;59.00
50758;DHT22;36732;47.980;11.652;2022-08-19T04:21:26;23.10;59.70
50758;DHT22;36732;47.980;11.652;2022-08-19T04:23:53;23.20;59.20
50758;DHT22;36732;47.980;11.652;2022-08-19T04:26:28;23.10;59.10
50758;DHT22;36732;47.980;11.652;2022-08-19T04:29:01;23.20;59.20
50758;DHT22;36732;47.980;11.652;2022-08-19T04:31:31;23.20;59.10
50758;DHT22;36732;47.980;11.652;2022-08-19T04:34:08;23.10;59.30
50758;DHT22;36732;47.980;11.652;2022-08-19T04:36:37;23.10;59.30
50758;DHT22;36732;47.980;11.652;2022-08-19T04:39:09;23.20;59.40
50758;DHT22;36732;47.980;11.652;2022-08-19T04:41:37;23.20;59.50
50758;DHT22;36732;47.980;11.652;2022-08-19T04:44:21;23.10;59.30
50758;DHT22;36732;47.980;11.652;2022-08-19T04:46:48;23.10;59.30
50758;DHT22;36732;47.980;11.652;2022-08-19T04:49:16;23.10;59.40
50758;DHT22;36732;47.980;11.652;2022-08-19T04:51:44;23.10;59.40
50758;DHT22;36732;47.980;11.652;2022-08-19T04:54:12;23.10;59.40
50758;DHT22;36732;47.980;11.652;2022-08-19T04:56:40;23.10;59.40
50758;DHT22;36732;47.980;11.652;2022-08-19T04:59:06;23.20;59.40
50758;DHT22;36732;47.980;11.652;2022-08-19T05:01:34;23.20;59.40
50758;DHT22;36732;47.980;11.652;2022-08-19T05:04:03;23.10;59.40
50758;DHT22;36732;47.980;11.652;2022-08-19T05:06:31;23.20;59.50
50758;DHT22;36732;47.980;11.652;2022-08-19T05:08:58;23.20;59.40
50758;DHT22;36732;47.980;11.652;2022-08-19T05:11:28;23.10;59.40
50758;DHT22;36732;47.980;11.652;2022-08-19T05:13:57;23.10;59.40
50758;DHT22;36732;47.980;11.652;2022-08-19T05:16:24;23.10;59.40
50758;DHT22;36732;47.980;11.652;2022-08-19T05:18:51;23.10;59.40
50758;DHT22;36732;47.980;11.652;2022-08-19T05:21:36;23.20;59.40
50758;DHT22;36732;47.980;11.652;2022-08-19T05:24:22;23.20;59.40
50758;DHT22;36732;47.980;11.652;2022-08-19T05:26:51;23.20;59.40
50758;DHT22;36732;47.980;11.652;2022-08-19T05:29:20;23.10;59.50
50758;DHT22;36732;47.980;11.652;2022-08-19T05:31:47;23.20;59.50
50758;DHT22;36732;47.980;11.652;2022-08-19T05:34:15;23.10;59.40
50758;DHT22;36732;47.980;11.652;2022-08-19T05:36:43;23.20;59.50
50758;DHT22;36732;47.980;11.652;2022-08-19T05:39:13;23.20;59.80
50758;DHT22;36732;47.980;11.652;2022-08-19T05:41:45;23.10;59.60
50758;DHT22;36732;47.980;11.652;2022-08-19T05:44:12;23.10;59.60
50758;DHT22;36732;47.980;11.652;2022-08-19T05:46:39;23.20;59.70
50758;DHT22;36732;47.980;11.652;2022-08-19T05:49:06;23.20;59.60
50758;DHT22;36732;47.980;11.652;2022-08-19T05:51:34;23.10;59.70
50758;DHT22;36732;47.980;11.652;2022-08-19T05:54:03;23.10;59.70
50758;DHT22;36732;47.980;11.652;2022-08-19T05:56:31;23.20;59.90
50758;DHT22;36732;47.980;11.652;2022-08-19T05:58:57;23.20;59.70
50758;DHT22;36732;47.980;11.652;2022-08-19T06:01:25;23.20;59.90
50758;DHT22;36732;47.980;11.652;2022-08-19T06:03:51;23.20;60.00
50758;DHT22;36732;47.980;11.652;2022-08-19T06:06:18;23.20;60.00
50758;DHT22;36732;47.980;11.652;2022-08-19T06:08:44;23.20;60.10
50758;DHT22;36732;47.980;11.652;2022-08-19T06:11:20;23.20;60.20
50758;DHT22;36732;47.980;11.652;2022-08-19T06:13:52;23.20;60.40
50758;DHT22;36732;47.980;11.652;2022-08-19T06:16:20;23.20;60.50
50758;DHT22;36732;47.980;11.652;2022-08-19T06:18:51;23.20;60.50
50758;DHT22;36732;47.980;11.652;2022-08-19T06:21:22;23.20;60.50
50758;DHT22;36732;47.980;11.652;2022-08-19T06:23:50;23.20;60.70
50758;DHT22;36732;47.980;11.652;2022-08-19T06:26:17;23.20;60.90
50758;DHT22;36732;47.980;11.652;2022-08-19T06:28:45;23.20;61.00
50758;DHT22;36732;47.980;11.652;2022-08-19T06:31:14;23.20;61.10
50758;DHT22;36732;47.980;11.652;2022-08-19T06:33:44;23.20;61.20
50758;DHT22;36732;47.980;11.652;2022-08-19T06:36:41;23.20;61.20
50758;DHT22;36732;47.980;11.652;2022-08-19T06:39:14;23.20;61.60
50758;DHT22;36732;47.980;11.652;2022-08-19T06:41:46;23.20;61.60
50758;DHT22;36732;47.980;11.652;2022-08-19T06:44:13;23.20;61.60
50758;DHT22;36732;47.980;11.652;2022-08-19T06:46:40;23.20;61.60
50758;DHT22;36732;47.980;11.652;2022-08-19T06:49:07;23.20;61.90
50758;DHT22;36732;47.980;11.652;2022-08-19T06:51:40;23.20;62.10
50758;DHT22;36732;47.980;11.652;2022-08-19T06:54:07;23.20;62.10
50758;DHT22;36732;47.980;11.652;2022-08-19T06:56:33;23.20;62.10
50758;DHT22;36732;47.980;11.652;2022-08-19T06:59:05;23.20;62.20
50758;DHT22;36732;47.980;11.652;2022-08-19T07:01:38;23.20;62.50
50758;DHT22;36732;47.980;11.652;2022-08-19T07:04:08;23.20;62.20
50758;DHT22;36732;47.980;11.652;2022-08-19T07:06:35;23.20;62.10
50758;DHT22;36732;47.980;11.652;2022-08-19T07:09:03;23.20;62.00
50758;DHT22;36732;47.980;11.652;2022-08-19T07:11:30;23.20;62.10
50758;DHT22;36732;47.980;11.652;2022-08-19T07:13:58;23.30;62.20
50758;DHT22;36732;47.980;11.652;2022-08-19T07:16:24;23.20;62.30
50758;DHT22;36732;47.980;11.652;2022-08-19T07:18:51;23.30;62.30
50758;DHT22;36732;47.980;11.652;2022-08-19T07:21:23;23.20;62.40
50758;DHT22;36732;47.980;11.652;2022-08-19T07:23:51;23.20;62.90
50758;DHT22;36732;47.980;11.652;2022-08-19T07:26:19;23.30;62.70
50758;DHT22;36732;47.980;11.652;2022-08-19T07:28:48;23.30;62.90
50758;DHT22;36732;47.980;11.652;2022-08-19T07:31:22;23.30;62.90
50758;DHT22;36732;47.980;11.652;2022-08-19T07:33:51;23.30;63.50
50758;DHT22;36732;47.980;11.652;2022-08-19T07:36:20;23.30;63.20
50758;DHT22;36732;47.980;11.652;2022-08-19T07:38:50;23.30;63.40
50758;DHT22;36732;47.980;11.652;2022-08-19T07:41:19;23.30;63.50
50758;DHT22;36732;47.980;11.652;2022-08-19T07:43:48;23.40;63.90
50758;DHT22;36732;47.980;11.652;2022-08-19T07:46:15;23.40;63.90
50758;DHT22;36732;47.980;11.652;2022-08-19T07:48:43;23.40;63.80
50758;DHT22;36732;47.980;11.652;2022-08-19T07:51:13;23.50;63.90
50758;DHT22;36732;47.980;11.652;2022-08-19T07:53:41;23.50;63.90
50758;DHT22;36732;47.980;11.652;2022-08-19T07:56:07;23.50;63.80
50758;DHT22;36732;47.980;11.652;2022-08-19T07:58:36;23.60;63.90
50758;DHT22;36732;47.980;11.652;2022-08-19T08:01:04;23.60;63.70
50758;DHT22;36732;47.980;11.652;2022-08-19T08:03:31;23.60;63.70
50758;DHT22;36732;47.980;11.652;2022-08-19T08:06:16;23.60;63.40
50758;DHT22;36732;47.980;11.652;2022-08-19T08:09:03;23.60;63.00
50758;DHT22;36732;47.980;11.652;2022-08-19T08:11:44;23.60;62.90
50758;DHT22;36732;47.980;11.652;2022-08-19T08:14:18;23.70;62.90
50758;DHT22;36732;47.980;11.652;2022-08-19T08:16:46;23.60;62.90
50758;DHT22;36732;47.980;11.652;2022-08-19T08:19:13;23.70;63.00
50758;DHT22;36732;47.980;11.652;2022-08-19T08:21:42;23.60;62.90
50758;DHT22;36732;47.980;11.652;2022-08-19T08:24:09;23.70;62.80
50758;DHT22;36732;47.980;11.652;2022-08-19T08:26:35;23.60;62.80
50758;DHT22;36732;47.980;11.652;2022-08-19T08:29:01;23.60;62.70
50758;DHT22;36732;47.980;11.652;2022-08-19T08:31:27;23.70;62.70
50758;DHT22;36732;47.980;11.652;2022-08-19T08:33:53;23.60;62.60
50758;DHT22;36732;47.980;11.652;2022-08-19T08:36:19;23.60;62.50
50758;DHT22;36732;47.980;11.652;2022-08-19T08:38:45;23.60;62.60
50758;DHT22;36732;47.980;11.652;2022-08-19T08:41:28;23.60;62.50
50758;DHT22;36732;47.980;11.652;2022-08-19T08:43:59;23.60;62.60
50758;DHT22;36732;47.980;11.652;2022-08-19T08:46:47;23.60;62.40
50758;DHT22;36732;47.980;11.652;2022-08-19T08:49:24;23.60;62.40
50758;DHT22;36732;47.980;11.652;2022-08-19T08:52:22;23.60;62.30
50758;DHT22;36732;47.980;11.652;2022-08-19T08:54:54;23.60;62.30
50758;DHT22;36732;47.980;11.652;2022-08-19T08:57:51;23.60;62.30
50758;DHT22;36732;47.980;11.652;2022-08-19T09:00:37;23.60;62.50
50758;DHT22;36732;47.980;11.652;2022-08-19T09:03:16;23.60;62.60
50758;DHT22;36732;47.980;11.652;2022-08-19T09:05:56;23.60;63.20
50758;DHT22;36732;47.980;11.652;2022-08-19T09:08:38;23.60;63.30
50758;DHT22;36732;47.980;11.652;2022-08-19T09:11:40;23.60;63.40
50758;DHT22;36732;47.980;11.652;2022-08-19T09:14:20;23.60;63.80
50758;DHT22;36732;47.980;11.652;2022-08-19T09:17:07;23.60;63.60
50758;DHT22;36732;47.980;11.652;2022-08-19T09:22:20;23.60;64.30
50758;DHT22;36732;47.980;11.652;2022-08-19T09:24:49;23.60;63.90
50758;DHT22;36732;47.980;11.652;2022-08-19T09:27:18;23.60;64.10
50758;DHT22;36732;47.980;11.652;2022-08-19T09:29:45;23.60;64.40
50758;DHT22;36732;47.980;11.652;2022-08-19T09:32:13;23.60;64.50
50758;DHT22;36732;47.980;11.652;2022-08-19T09:34:39;23.70;64.80
50758;DHT22;36732;47.980;11.652;2022-08-19T09:37:05;23.70;64.70
50758;DHT22;36732;47.980;11.652;2022-08-19T09:39:31;23.70;64.60
50758;DHT22;36732;47.980;11.652;2022-08-19T09:41:57;23.70;65.00
50758;DHT22;36732;47.980;11.652;2022-08-19T09:44:23;23.70;65.10
50758;DHT22;36732;47.980;11.652;2022-08-19T09:46:49;23.80;65.40
50758;DHT22;36732;47.980;11.652;2022-08-19T09:49:17;23.80;65.20
50758;DHT22;36732;47.980;11.652;2022-08-19T09:51:44;23.80;65.30
50758;DHT22;36732;47.980;11.652;2022-08-19T09:54:14;23.80;65.30
50758;DHT22;36732;47.980;11.652;2022-08-19T09:56:40;23.90;65.50
50758;DHT22;36732;47.980;11.652;2022-08-19T09:59:05;23.90;65.20
50758;DHT22;36732;47.980;11.652;2022-08-19T10:01:32;23.90;65.20
50758;DHT22;36732;47.980;11.652;2022-08-19T10:04:00;24.00;65.20
50758;DHT22;36732;47.980;11.652;2022-08-19T10:06:29;24.00;65.60
50758;DHT22;36732;47.980;11.652;2022-08-19T10:08:58;24.00;65.40
50758;DHT22;36732;47.980;11.652;2022-08-19T10:11:24;24.00;65.30
50758;DHT22;36732;47.980;11.652;2022-08-19T10:13:50;24.00;65.10
50758;DHT22;36732;47.980;11.652;2022-08-19T10:16:19;24.00;65.10
50758;DHT22;36732;47.980;11.652;2022-08-19T10:18:47;24.10;65.40
50758;DHT22;36732;47.980;11.652;2022-08-19T10:21:20;24.10;65.20
50758;DHT22;36732;47.980;11.652;2022-08-19T10:23:56;24.10;65.00
50758;DHT22;36732;47.980;11.652;2022-08-19T10:26:26;24.10;64.80
50758;DHT22;36732;47.980;11.652;2022-08-19T10:28:53;24.10;64.90
50758;DHT22;36732;47.980;11.652;2022-08-19T10:31:23;24.20;64.90
50758;DHT22;36732;47.980;11.652;2022-08-19T10:33:52;24.20;65.00
50758;DHT22;36732;47.980;11.652;2022-08-19T10:36:24;24.20;64.90
50758;DHT22;36732;47.980;11.652;2022-08-19T10:38:54;24.20;64.80
50758;DHT22;36732;47.980;11.652;2022-08-19T10:41:33;24.20;64.60
50758;DHT22;36732;47.980;11.652;2022-08-19T10:44:07;24.20;64.50
50758;DHT22;36732;47.980;11.652;2022-08-19T10:46:37;24.30;64.60
50758;DHT22;36732;47.980;11.652;2022-08-19T10:49:07;24.30;64.30
50758;DHT22;36732;47.980;11.652;2022-08-19T10:51:35;24.30;64.00
50758;DHT22;36732;47.980;11.652;2022-08-19T10:54:19;24.30;64.20
50758;DHT22;36732;47.980;11.652;2022-08-19T10:56:45;24.40;64.00
50758;DHT22;36732;47.980;11.652;2022-08-19T10:59:22;24.40;63.90
50758;DHT22;36732;47.980;11.652;2022-08-19T11:01:59;24.40;63.80
50758;DHT22;36732;47.980;11.652;2022-08-19T11:04:25;24.40;63.80
50758;DHT22;36732;47.980;11.652;2022-08-19T11:06:51;24.50;63.80
50758;DHT22;36732;47.980;11.652;2022-08-19T11:09:22;24.50;63.80
50758;DHT22;36732;47.980;11.652;2022-08-19T11:11:53;24.50;63.70
50758;DHT22;36732;47.980;11.652;2022-08-19T11:14:20;24.50;63.80
50758;DHT22;36732;47.980;11.652;2022-08-19T11:16:51;24.50;63.70
50758;DHT22;36732;47.980;11.652;2022-08-19T11:19:18;24.60;63.60
50758;DHT22;36732;47.980;11.652;2022-08-19T11:21:46;24.60;63.50
50758;DHT22;36732;47.980;11.652;2022-08-19T11:24:16;24.70;63.40
50758;DHT22;36732;47.980;11.652;2022-08-19T11:26:44;24.70;63.20
50758;DHT22;36732;47.980;11.652;2022-08-19T11:29:11;24.70;63.10
50758;DHT22;36732;47.980;11.652;2022-08-19T11:31:40;24.70;63.00
50758;DHT22;36732;47.980;11.652;2022-08-19T11:34:10;24.70;63.00
50758;DHT22;36732;47.980;11.652;2022-08-19T11:36:41;24.70;62.70
50758;DHT22;36732;47.980;11.652;2022-08-19T11:39:10;24.70;62.50
50758;DHT22;36732;47.980;11.652;2022-08-19T11:41:38;24.70;62.40
50758;DHT22;36732;47.980;11.652;2022-08-19T11:44:04;24.70;62.60
50758;DHT22;36732;47.980;11.652;2022-08-19T11:46:30;24.80;62.90
50758;DHT22;36732;47.980;11.652;2022-08-19T11:49:00;24.80;62.90
50758;DHT22;36732;47.980;11.652;2022-08-19T11:51:26;24.80;62.90
50758;DHT22;36732;47.980;11.652;2022-08-19T11:53:54;24.80;62.80
50758;DHT22;36732;47.980;11.652;2022-08-19T11:56:22;24.80;62.70
50758;DHT22;36732;47.980;11.652;2022-08-19T11:58:48;24.80;62.40
50758;DHT22;36732;47.980;11.652;2022-08-19T12:01:16;24.80;62.30
50758;DHT22;36732;47.980;11.652;2022-08-19T12:03:45;24.80;62.20
50758;DHT22;36732;47.980;11.652;2022-08-19T12:06:15;24.80;62.10
50758;DHT22;36732;47.980;11.652;2022-08-19T12:08:43;24.80;62.00
50758;DHT22;36732;47.980;11.652;2022-08-19T12:11:11;24.90;62.10
50758;DHT22;36732;47.980;11.652;2022-08-19T12:13:38;24.80;62.00
50758;DHT22;36732;47.980;11.652;2022-08-19T12:16:09;24.80;61.90
50758;DHT22;36732;47.980;11.652;2022-08-19T12:18:38;24.90;61.80
50758;DHT22;36732;47.980;11.652;2022-08-19T12:21:04;24.90;61.50
50758;DHT22;36732;47.980;11.652;2022-08-19T12:23:30;24.90;61.50
50758;DHT22;36732;47.980;11.652;2022-08-19T12:25:56;24.90;61.50
50758;DHT22;36732;47.980;11.652;2022-08-19T12:28:23;24.90;61.40
50758;DHT22;36732;47.980;11.652;2022-08-19T12:30:50;24.90;61.40
50758;DHT22;36732;47.980;11.652;2022-08-19T12:33:17;24.90;61.40
50758;DHT22;36732;47.980;11.652;2022-08-19T12:35:45;24.90;61.40
50758;DHT22;36732;47.980;11.652;2022-08-19T12:38:12;24.90;61.40
50758;DHT22;36732;47.980;11.652;2022-08-19T12:40:39;25.00;61.40
50758;DHT22;36732;47.980;11.652;2022-08-19T12:43:08;24.90;61.10
50758;DHT22;36732;47.980;11.652;2022-08-19T12:45:34;25.00;61.00
50758;DHT22;36732;47.980;11.652;2022-08-19T12:48:00;25.00;60.90
50758;DHT22;36732;47.980;11.652;2022-08-19T12:50:26;24.90;60.70
50758;DHT22;36732;47.980;11.652;2022-08-19T12:52:51;24.90;60.70
50758;DHT22;36732;47.980;11.652;2022-08-19T12:55:18;24.90;60.80
50758;DHT22;36732;47.980;11.652;2022-08-19T12:57:44;24.90;61.40
50758;DHT22;36732;47.980;11.652;2022-08-19T13:00:14;24.90;61.20
50758;DHT22;36732;47.980;11.652;2022-08-19T13:02:43;25.00;61.20
50758;DHT22;36732;47.980;11.652;2022-08-19T13:05:16;24.90;61.10
50758;DHT22;36732;47.980;11.652;2022-08-19T13:07:48;25.00;61.20
50758;DHT22;36732;47.980;11.652;2022-08-19T13:10:17;25.00;61.30
50758;DHT22;36732;47.980;11.652;2022-08-19T13:12:47;25.00;61.50
50758;DHT22;36732;47.980;11.652;2022-08-19T13:15:15;25.10;61.00
50758;DHT22;36732;47.980;11.652;2022-08-19T13:17:46;25.10;60.90
50758;DHT22;36732;47.980;11.652;2022-08-19T13:20:15;25.10;60.80
50758;DHT22;36732;47.980;11.652;2022-08-19T13:22:43;25.10;60.50
50758;DHT22;36732;47.980;11.652;2022-08-19T13:25:11;25.10;60.20
50758;DHT22;36732;47.980;11.652;2022-08-19T13:27:38;25.10;60.10
50758;DHT22;36732;47.980;11.652;2022-08-19T13:30:06;25.10;60.00
50758;DHT22;36732;47.980;11.652;2022-08-19T13:32:52;25.20;60.00
50758;DHT22;36732;47.980;11.652;2022-08-19T13:35:43;25.20;59.80
50758;DHT22;36732;47.980;11.652;2022-08-19T13:38:16;25.20;59.70
50758;DHT22;36732;47.980;11.652;2022-08-19T13:40:44;25.20;59.70
50758;DHT22;36732;47.980;11.652;2022-08-19T13:43:10;25.30;59.70
50758;DHT22;36732;47.980;11.652;2022-08-19T13:45:36;25.20;59.40
50758;DHT22;36732;47.980;11.652;2022-08-19T13:48:05;25.30;59.40
50758;DHT22;36732;47.980;11.652;2022-08-19T13:50:41;25.30;59.30
50758;DHT22;36732;47.980;11.652;2022-08-19T13:53:09;25.30;59.20
50758;DHT22;36732;47.980;11.652;2022-08-19T13:55:40;25.30;59.10
50758;DHT22;36732;47.980;11.652;2022-08-19T13:58:08;25.30;59.00
50758;DHT22;36732;47.980;11.652;2022-08-19T14:00:39;25.30;59.00
50758;DHT22;36732;47.980;11.652;2022-08-19T14:03:06;25.30;58.70
50758;DHT22;36732;47.980;11.652;2022-08-19T14:05:32;25.30;58.60
50758;DHT22;36732;47.980;11.652;2022-08-19T14:07:59;25.30;58.40
50758;DHT22;36732;47.980;11.652;2022-08-19T14:10:26;25.30;58.50
50758;DHT22;36732;47.980;11.652;2022-08-19T14:12:55;25.30;58.60
50758;DHT22;36732;47.980;11.652;2022-08-19T14:15:23;25.30;58.80
50758;DHT22;36732;47.980;11.652;2022-08-19T14:17:50;25.30;59.00
50758;DHT22;36732;47.980;11.652;2022-08-19T14:20:16;25.30;58.90
50758;DHT22;36732;47.980;11.652;2022-08-19T14:22:43;25.40;58.90
50758;DHT22;36732;47.980;11.652;2022-08-19T14:25:13;25.50;59.20
50758;DHT22;36732;47.980;11.652;2022-08-19T14:27:41;25.50;59.30
50758;DHT22;36732;47.980;11.652;2022-08-19T14:30:10;25.60;59.80
50758;DHT22;36732;47.980;11.652;2022-08-19T14:32:37;25.70;59.50
50758;DHT22;36732;47.980;11.652;2022-08-19T14:35:03;25.80;59.30
50758;DHT22;36732;47.980;11.652;2022-08-19T14:37:30;25.90;58.60
50758;DHT22;36732;47.980;11.652;2022-08-19T14:39:56;26.00;58.30
50758;DHT22;36732;47.980;11.652;2022-08-19T14:42:21;26.10;58.00
50758;DHT22;36732;47.980;11.652;2022-08-19T14:44:47;26.10;57.50
50758;DHT22;36732;47.980;11.652;2022-08-19T14:47:13;26.20;57.10
50758;DHT22;36732;47.980;11.652;2022-08-19T14:49:39;26.20;56.70
50758;DHT22;36732;47.980;11.652;2022-08-19T14:52:05;26.20;56.60
50758;DHT22;36732;47.980;11.652;2022-08-19T14:54:31;26.20;56.60
50758;DHT22;36732;47.980;11.652;2022-08-19T14:56:57;26.20;56.30
50758;DHT22;36732;47.980;11.652;2022-08-19T14:59:23;26.10;56.30
50758;DHT22;36732;47.980;11.652;2022-08-19T15:01:49;26.10;56.70
50758;DHT22;36732;47.980;11.652;2022-08-19T15:04:15;26.20;56.80
50758;DHT22;36732;47.980;11.652;2022-08-19T15:06:40;26.20;56.80
50758;DHT22;36732;47.980;11.652;2022-08-19T15:09:08;26.20;56.90
50758;DHT22;36732;47.980;11.652;2022-08-19T15:11:35;26.30;56.90
50758;DHT22;36732;47.980;11.652;2022-08-19T15:14:02;26.30;56.70
50758;DHT22;36732;47.980;11.652;2022-08-19T15:16:28;26.30;56.50
50758;DHT22;36732;47.980;11.652;2022-08-19T15:18:56;26.30;56.50
50758;DHT22;36732;47.980;11.652;2022-08-19T15:21:24;26.30;56.80
50758;DHT22;36732;47.980;11.652;2022-08-19T15:23:51;26.30;56.20
50758;DHT22;36732;47.980;11.652;2022-08-19T15:26:18;26.30;56.10
50758;DHT22;36732;47.980;11.652;2022-08-19T15:28:45;26.40;55.90
50758;DHT22;36732;47.980;11.652;2022-08-19T15:31:12;26.40;56.00
50758;DHT22;36732;47.980;11.652;2022-08-19T15:33:39;26.40;55.90
50758;DHT22;36732;47.980;11.652;2022-08-19T15:36:08;26.40;55.90